Haddonfield, New Jersey
Current Conditions -  °F | °C
As of 2:54 PM on Friday 26 Dec 2014 (Local Time) from KVAY Reporting Station
Clear Clear  
Wind Chill: 47°   Ceiling: Unl
Heat Index: 49°   Visibility: 10mi
Dew Point: 30°   Wind: 6mph
Humidity: 48%   Direction: NA
Pressure: 30.22"   Gusts: NA
Location:  39.9°N, 75.03°W
Report Text: KVAY 261954Z AUTO VRB05KT 10SM CLR 09/M01 A3022 RMK AO2 SLP233 T00941011
Loading
Personal Weather Stations






























Interactive Weather Map New forecast layout! Learn more

10-Day Weather Forecast

Advertisements
Track Severe Weather on mobile